createdAt,value
2023-05-14T00:00:29.074Z,91269.66
2023-05-14T00:02:55.606Z,91257.50
2023-05-14T00:05:22.520Z,91242.69
2023-05-14T00:07:49.230Z,91216.75
2023-05-14T00:10:15.553Z,91189.44
2023-05-14T00:12:41.920Z,91195.75
2023-05-14T00:15:09.171Z,91189.88
2023-05-14T00:17:36.354Z,91191.53
2023-05-14T00:20:06.968Z,91197.06
2023-05-14T00:22:34.904Z,91182.69
2023-05-14T00:25:01.309Z,91155.19
2023-05-14T00:27:27.670Z,91134.44
2023-05-14T00:29:54.460Z,91129.13
2023-05-14T00:32:21.002Z,91105.25
2023-05-14T00:34:47.467Z,91102.75
2023-05-14T00:37:14.126Z,91094.44
2023-05-14T00:39:40.470Z,91097.22
2023-05-14T00:42:06.974Z,91067.06
2023-05-14T00:44:33.709Z,91068.84
2023-05-14T00:47:00.678Z,91061.09
2023-05-14T00:49:28.515Z,91071.28
2023-05-14T00:51:55.672Z,91071.16
2023-05-14T00:54:22.638Z,91084.31
2023-05-14T00:56:49.184Z,91075.59
2023-05-14T00:59:15.902Z,91065.31
2023-05-14T01:01:42.548Z,91064.97
2023-05-14T01:04:10.836Z,90929.47
2023-05-14T01:06:40.311Z,90908.91
2023-05-14T01:09:22.523Z,90895.91
2023-05-14T01:12:01.072Z,90872.41
2023-05-14T01:14:46.071Z,90868.47
2023-05-14T01:17:15.725Z,90878.69
2023-05-14T01:19:43.914Z,90887.00
2023-05-14T01:22:11.252Z,90890.84
2023-05-14T01:24:38.006Z,90882.22
2023-05-14T01:27:16.935Z,90893.38
2023-05-14T01:29:49.583Z,90895.28
2023-05-14T01:32:17.686Z,90899.38
2023-05-14T01:34:47.146Z,90904.75
2023-05-14T01:37:14.191Z,90910.28
2023-05-14T01:39:42.231Z,90911.00
2023-05-14T01:42:09.498Z,90912.44
2023-05-14T01:44:36.930Z,90921.47
2023-05-14T01:47:03.515Z,90915.59
2023-05-14T01:49:29.988Z,90910.28
2023-05-14T01:51:56.356Z,90891.63
2023-05-14T01:54:22.686Z,90914.72
2023-05-14T01:56:49.009Z,90922.47
2023-05-14T01:59:16.274Z,90912.75
2023-05-14T02:01:42.654Z,90919.06
2023-05-14T02:04:09.154Z,90913.44
2023-05-14T02:06:35.908Z,90918.31
2023-05-14T02:09:05.049Z,90915.22
2023-05-14T02:11:31.390Z,90928.56
2023-05-14T02:13:58.081Z,90927.38
2023-05-14T02:16:24.464Z,90901.84
2023-05-14T02:18:50.895Z,90917.47
2023-05-14T02:21:17.725Z,90915.25
2023-05-14T02:23:44.187Z,90905.75
2023-05-14T02:26:11.004Z,90906.44
2023-05-14T02:28:37.892Z,90897.56
2023-05-14T02:31:04.326Z,90896.03
2023-05-14T02:33:31.219Z,90896.94
2023-05-14T02:35:57.722Z,90870.19
2023-05-14T02:38:26.740Z,90884.47
2023-05-14T02:40:53.123Z,90887.69
2023-05-14T02:43:19.529Z,90883.69
2023-05-14T02:45:46.168Z,90869.34
2023-05-14T02:48:12.546Z,90872.31
2023-05-14T02:50:38.981Z,90867.44
2023-05-14T02:53:05.704Z,90873.09
2023-05-14T02:55:32.574Z,90865.69
2023-05-14T02:57:58.947Z,90864.06
2023-05-14T03:00:26.136Z,90845.88
2023-05-14T03:02:53.075Z,90838.19
2023-05-14T03:05:20.190Z,90851.25
2023-05-14T03:07:46.987Z,90851.31
2023-05-14T03:10:13.342Z,90847.03
2023-05-14T03:12:39.732Z,90863.50
2023-05-14T03:15:06.832Z,90846.16
2023-05-14T03:17:33.180Z,90837.06
2023-05-14T03:19:59.532Z,90854.91
2023-05-14T03:22:26.611Z,90848.91
2023-05-14T03:24:53.022Z,90851.13
2023-05-14T03:27:19.379Z,90845.25
2023-05-14T03:29:45.991Z,90850.38
2023-05-14T03:32:12.518Z,90836.88
2023-05-14T03:34:38.921Z,90844.97
2023-05-14T03:37:05.722Z,90843.72
2023-05-14T03:39:32.475Z,90838.19
2023-05-14T03:41:59.047Z,90849.81
2023-05-14T03:44:25.560Z,90830.34
2023-05-14T03:46:52.409Z,90834.09
2023-05-14T03:49:18.818Z,90835.97
2023-05-14T03:51:45.198Z,90847.47
2023-05-14T03:54:12.051Z,90852.25
2023-05-14T03:56:38.807Z,90856.44
2023-05-14T03:59:05.182Z,90864.59
2023-05-14T04:01:31.926Z,90864.59
2023-05-14T04:03:58.358Z,90864.72
2023-05-14T04:06:24.732Z,90861.41
2023-05-14T04:08:51.525Z,90872.22
2023-05-14T04:11:17.882Z,90870.66
2023-05-14T04:13:44.214Z,90868.47
2023-05-14T04:16:11.167Z,90878.19
2023-05-14T04:18:37.573Z,90876.09
2023-05-14T04:21:04.084Z,90855.97
2023-05-14T04:23:32.166Z,90844.56
2023-05-14T04:25:58.932Z,90847.00
2023-05-14T04:28:25.561Z,90851.75
2023-05-14T04:30:52.845Z,90829.66
2023-05-14T04:33:19.169Z,90832.06
2023-05-14T04:35:45.938Z,90826.94
2023-05-14T04:38:14.413Z,90822.34
2023-05-14T04:40:43.617Z,90837.03
2023-05-14T04:43:10.947Z,90834.03
2023-05-14T04:45:37.384Z,90841.78
2023-05-14T04:48:04.632Z,90853.28
2023-05-14T04:50:31.782Z,90856.16
2023-05-14T04:52:58.154Z,90872.72
2023-05-14T04:55:24.534Z,90884.44
2023-05-14T04:57:51.476Z,90892.63
2023-05-14T05:00:18.148Z,90893.81
2023-05-14T05:02:44.654Z,90899.13
2023-05-14T05:05:11.698Z,90899.13
2023-05-14T05:07:38.054Z,90888.59
2023-05-14T05:10:04.812Z,90890.25
2023-05-14T05:12:31.622Z,90866.38
2023-05-14T05:14:57.964Z,90866.13
2023-05-14T05:17:25.161Z,90869.88
2023-05-14T05:19:52.517Z,90879.84
2023-05-14T05:22:20.443Z,90866.44
2023-05-14T05:24:48.061Z,90863.91
2023-05-14T05:27:16.481Z,90849.06
2023-05-14T05:29:44.837Z,90832.41
2023-05-14T05:32:11.198Z,90835.28
2023-05-14T05:34:37.676Z,90839.84
2023-05-14T05:37:06.244Z,90865.63
2023-05-14T05:39:34.676Z,90855.66
2023-05-14T05:42:04.918Z,90848.72
2023-05-14T05:44:31.465Z,90856.19
2023-05-14T05:46:58.073Z,90861.25
2023-05-14T05:49:25.091Z,90882.72
2023-05-14T05:51:51.750Z,90879.91
2023-05-14T05:54:18.120Z,90865.31
2023-05-14T05:56:44.472Z,90871.06
2023-05-14T05:59:11.389Z,90863.69
2023-05-14T06:01:37.926Z,90855.28
2023-05-14T06:04:06.150Z,90812.84
2023-05-14T06:06:33.273Z,90849.03
2023-05-14T06:09:01.642Z,90890.47
2023-05-14T06:11:28.951Z,90892.19
2023-05-14T06:13:55.363Z,90903.97
2023-05-14T06:16:21.784Z,90942.69
2023-05-14T06:18:48.864Z,90886.47
2023-05-14T06:21:15.656Z,91056.13
2023-05-14T06:23:41.996Z,91115.19
2023-05-14T06:26:08.330Z,91167.28
2023-05-14T06:28:34.880Z,91153.06
2023-05-14T06:31:01.252Z,91162.63
2023-05-14T06:33:31.252Z,91264.63
2023-05-14T06:36:05.220Z,91320.19
2023-05-14T06:38:32.236Z,91427.19
2023-05-14T06:40:58.676Z,91474.47
2023-05-14T06:43:25.941Z,91501.56
2023-05-14T06:45:52.456Z,91540.66
2023-05-14T06:48:19.527Z,91659.03
2023-05-14T06:50:47.413Z,91734.13
2023-05-14T06:53:14.457Z,91759.69
2023-05-14T06:55:41.154Z,91837.22
2023-05-14T06:58:08.488Z,91935.50
2023-05-14T07:00:35.341Z,91949.38
2023-05-14T07:03:02.468Z,92047.66
2023-05-14T07:05:29.013Z,92106.84
2023-05-14T07:07:55.442Z,92172.22
2023-05-14T07:10:22.673Z,92296.06
2023-05-14T07:12:49.669Z,92328.88
2023-05-14T07:15:16.105Z,92425.81
2023-05-14T07:17:42.859Z,92456.41
2023-05-14T07:20:09.747Z,92414.28
2023-05-14T07:22:36.106Z,92409.38
2023-05-14T07:25:02.891Z,92460.00
2023-05-14T07:27:31.182Z,92556.81
2023-05-14T07:29:57.521Z,92689.91
2023-05-14T07:32:25.066Z,92746.97
2023-05-14T07:34:52.207Z,92740.34
2023-05-14T07:37:18.838Z,92685.22
2023-05-14T07:39:45.213Z,92641.19
2023-05-14T07:42:19.407Z,92590.13
2023-05-14T07:44:51.859Z,92573.13
2023-05-14T07:47:18.732Z,92586.31
2023-05-14T07:49:45.074Z,92576.13
2023-05-14T07:52:11.413Z,92609.94
2023-05-14T07:54:38.721Z,92632.66
2023-05-14T07:57:05.216Z,92684.75
2023-05-14T07:59:31.994Z,92692.59
2023-05-14T08:01:58.843Z,92721.19
2023-05-14T08:04:25.326Z,92720.03
2023-05-14T08:06:51.786Z,92664.78
2023-05-14T08:09:18.494Z,92696.84
2023-05-14T08:11:44.834Z,92680.31
2023-05-14T08:14:11.170Z,92720.09
2023-05-14T08:16:38.945Z,92733.41
2023-05-14T08:19:05.533Z,92791.06
2023-05-14T08:21:32.854Z,92767.13
2023-05-14T08:23:59.333Z,92729.34
2023-05-14T08:26:25.783Z,92733.09
2023-05-14T08:28:54.072Z,92796.81
2023-05-14T08:31:20.987Z,92770.75
2023-05-14T08:33:47.419Z,92734.81
2023-05-14T08:36:14.437Z,92694.25
2023-05-14T08:38:41.957Z,92704.78
2023-05-14T08:41:09.040Z,92804.28
2023-05-14T08:44:07.016Z,92794.91
2023-05-14T08:46:34.034Z,92746.97
2023-05-14T08:49:17.182Z,92740.56
2023-05-14T08:51:46.995Z,92799.00
2023-05-14T08:54:18.556Z,92920.34
2023-05-14T08:56:50.517Z,93007.75
2023-05-14T08:59:18.475Z,93040.28
2023-05-14T09:01:49.176Z,93192.94
2023-05-14T09:04:19.372Z,93291.63
2023-05-14T09:06:49.252Z,93263.78
2023-05-14T09:09:16.182Z,93350.78
2023-05-14T09:11:46.386Z,93536.72
2023-05-14T09:14:12.816Z,93578.25
2023-05-14T09:16:41.702Z,93644.56
2023-05-14T09:19:08.878Z,93782.91
2023-05-14T09:21:35.643Z,93695.34
2023-05-14T09:24:01.982Z,93621.13
2023-05-14T09:26:31.661Z,93584.56
2023-05-14T09:29:05.405Z,93593.22
2023-05-14T09:31:33.480Z,93607.97
2023-05-14T09:34:00.719Z,93556.94
2023-05-14T09:36:28.043Z,93582.72
2023-05-14T09:38:57.803Z,93591.31
2023-05-14T09:41:24.549Z,93602.88
2023-05-14T09:43:51.863Z,93620.75
2023-05-14T09:46:18.496Z,93623.06
2023-05-14T09:48:45.951Z,93766.78
2023-05-14T09:51:13.854Z,93798.59
2023-05-14T09:53:41.210Z,93776.44
2023-05-14T09:56:07.643Z,93787.28
2023-05-14T09:58:34.418Z,93904.31
2023-05-14T10:01:02.624Z,93920.47
2023-05-14T10:03:30.624Z,93860.19
2023-05-14T10:06:04.596Z,93861.13
2023-05-14T10:08:34.808Z,93792.22
2023-05-14T10:11:06.693Z,93806.66
2023-05-14T10:13:39.163Z,93829.00
2023-05-14T10:16:16.891Z,93895.47
2023-05-14T10:18:48.393Z,93841.09
2023-05-14T10:21:17.546Z,93860.66
2023-05-14T10:23:44.649Z,93855.19
2023-05-14T10:26:11.223Z,93927.53
2023-05-14T10:28:37.804Z,93949.34
2023-05-14T10:31:04.499Z,94144.69
2023-05-14T10:33:30.930Z,94240.94
2023-05-14T10:36:01.272Z,94343.34
2023-05-14T10:38:29.791Z,94275.69
2023-05-14T10:40:58.940Z,94239.25
2023-05-14T10:43:27.976Z,94252.84
2023-05-14T10:45:55.653Z,94278.22
2023-05-14T10:48:22.222Z,94258.22
2023-05-14T10:50:51.175Z,94308.25
2023-05-14T10:53:18.065Z,94336.28
2023-05-14T10:55:45.202Z,94309.19
2023-05-14T10:58:12.240Z,94381.66
2023-05-14T11:00:39.799Z,94373.25
2023-05-14T11:03:07.211Z,94566.72
2023-05-14T11:05:35.857Z,94620.06
2023-05-14T11:08:06.204Z,94664.31
2023-05-14T11:10:34.024Z,94630.84
2023-05-14T11:13:00.549Z,94579.59
2023-05-14T11:15:28.561Z,94537.09
2023-05-14T11:17:55.260Z,94530.97
2023-05-14T11:20:21.949Z,94488.56
2023-05-14T11:22:51.949Z,94464.31
2023-05-14T11:25:19.230Z,94544.06
2023-05-14T11:27:47.255Z,94544.97
2023-05-14T11:30:17.650Z,94587.34
2023-05-14T11:32:46.890Z,94631.84
2023-05-14T11:35:14.126Z,94585.47
2023-05-14T11:37:40.710Z,94535.63
2023-05-14T11:40:10.414Z,94533.09
2023-05-14T11:42:37.658Z,94513.78
2023-05-14T11:45:04.594Z,94492.44
2023-05-14T11:47:31.730Z,94460.72
2023-05-14T11:50:01.396Z,94508.44
2023-05-14T11:52:27.854Z,94518.16
2023-05-14T11:54:54.253Z,94508.44
2023-05-14T11:57:22.701Z,94568.03
2023-05-14T11:59:55.539Z,94550.53
2023-05-14T12:02:23.007Z,94519.56
2023-05-14T12:04:52.162Z,94512.38
2023-05-14T12:07:18.856Z,94477.91
2023-05-14T12:09:50.781Z,94436.00
2023-05-14T12:12:22.934Z,94483.34
2023-05-14T12:14:50.426Z,94490.63
2023-05-14T12:17:19.300Z,94489.34
2023-05-14T12:19:48.494Z,94496.16
2023-05-14T12:22:17.432Z,94526.53
2023-05-14T12:24:44.183Z,94502.91
2023-05-14T12:27:11.181Z,94530.53
2023-05-14T12:29:40.706Z,94506.75
2023-05-14T12:32:09.261Z,94504.38
2023-05-14T12:34:37.694Z,94484.16
2023-05-14T12:37:04.951Z,94575.00
2023-05-14T12:39:33.630Z,94547.09
2023-05-14T12:42:00.564Z,94574.81
2023-05-14T12:44:27.021Z,94598.78
2023-05-14T12:46:53.680Z,94540.53
2023-05-14T12:49:20.531Z,94564.69
2023-05-14T12:51:46.945Z,94616.28
2023-05-14T12:54:13.628Z,94586.75
2023-05-14T12:56:40.504Z,94533.41
2023-05-14T12:59:06.831Z,94539.00
2023-05-14T13:01:33.635Z,94507.84
2023-05-14T13:04:00.180Z,94511.88
2023-05-14T13:06:26.677Z,94481.28
2023-05-14T13:08:53.656Z,94458.69
2023-05-14T13:11:20.000Z,94475.06
2023-05-14T13:13:46.371Z,94512.56
2023-05-14T13:16:17.163Z,94468.03
2023-05-14T13:18:43.630Z,94459.41
2023-05-14T13:21:10.074Z,94451.94
2023-05-14T13:23:36.493Z,94479.38
2023-05-14T13:26:02.950Z,94476.59
2023-05-14T13:28:29.329Z,94498.44
2023-05-14T13:31:09.242Z,94464.88
2023-05-14T13:33:37.412Z,94463.13
2023-05-14T13:36:04.495Z,94400.59
2023-05-14T13:38:31.398Z,94338.59
2023-05-14T13:41:01.719Z,94348.28
2023-05-14T13:43:32.846Z,94322.31
2023-05-14T13:45:59.664Z,94262.00
2023-05-14T13:48:26.945Z,94240.47
2023-05-14T13:50:54.743Z,94246.81
2023-05-14T13:53:22.956Z,94245.84
2023-05-14T13:55:50.525Z,94212.72
2023-05-14T13:58:17.580Z,94196.56
2023-05-14T14:00:43.965Z,94168.22
2023-05-14T14:03:10.557Z,94155.09
2023-05-14T14:05:38.017Z,94104.47
2023-05-14T14:08:22.148Z,94079.03
2023-05-14T14:10:50.552Z,94015.97
2023-05-14T14:13:16.947Z,93875.22
2023-05-14T14:15:43.685Z,93743.00
2023-05-14T14:18:10.588Z,93590.97
2023-05-14T14:20:36.969Z,93475.88
2023-05-14T14:23:03.306Z,93388.00
2023-05-14T14:25:30.055Z,93279.03
2023-05-14T14:27:56.563Z,93201.09
2023-05-14T14:30:22.928Z,93133.34
2023-05-14T14:32:50.037Z,93048.53
2023-05-14T14:35:18.210Z,92987.75
2023-05-14T14:37:49.427Z,92886.47
2023-05-14T14:40:16.940Z,92835.00
2023-05-14T14:42:43.764Z,92738.63
2023-05-14T14:45:11.489Z,92539.41
2023-05-14T14:47:37.894Z,92493.44
2023-05-14T14:50:05.502Z,92444.75
2023-05-14T14:52:32.372Z,92425.63
2023-05-14T14:54:58.793Z,92399.38
2023-05-14T14:57:25.196Z,92391.09
2023-05-14T14:59:51.656Z,92375.84
2023-05-14T15:02:18.116Z,92356.53
2023-05-14T15:04:44.988Z,92357.66
2023-05-14T15:07:11.321Z,92394.16
2023-05-14T15:09:37.681Z,92386.56
2023-05-14T15:12:04.774Z,92336.81
2023-05-14T15:14:31.166Z,92267.94
2023-05-14T15:16:57.533Z,92194.66
2023-05-14T15:19:24.171Z,92161.00
2023-05-14T15:21:50.600Z,92111.03
2023-05-14T15:24:17.033Z,92075.28
2023-05-14T15:26:43.667Z,92061.91
2023-05-14T15:29:10.896Z,92004.91
2023-05-14T15:31:37.362Z,92011.69
2023-05-14T15:34:03.957Z,92084.97
2023-05-14T15:36:31.169Z,92172.94
2023-05-14T15:38:57.535Z,92309.44
2023-05-14T15:41:25.483Z,92307.47
2023-05-14T15:43:52.173Z,92355.97
2023-05-14T15:46:18.584Z,92308.91
2023-05-14T15:48:45.724Z,92253.03
2023-05-14T15:51:13.017Z,92232.66
2023-05-14T15:53:39.356Z,92257.09
2023-05-14T15:56:06.115Z,92228.75
2023-05-14T15:58:32.685Z,92200.59
2023-05-14T16:00:59.006Z,92203.13
2023-05-14T16:03:25.447Z,92194.03
2023-05-14T16:05:52.518Z,92166.13
2023-05-14T16:08:18.914Z,92195.53
2023-05-14T16:10:45.233Z,92308.47
2023-05-14T16:13:11.868Z,92407.66
2023-05-14T16:15:39.644Z,92492.56
2023-05-14T16:18:06.704Z,92631.09
2023-05-14T16:20:33.086Z,92758.56
2023-05-14T16:22:59.432Z,92813.25
2023-05-14T16:25:26.216Z,92878.78
2023-05-14T16:27:52.566Z,92949.22
2023-05-14T16:30:18.895Z,93020.84
2023-05-14T16:32:49.103Z,93111.59
2023-05-14T16:35:16.899Z,93137.13
2023-05-14T16:37:43.258Z,93128.28
2023-05-14T16:40:11.625Z,93123.00
2023-05-14T16:42:39.034Z,93102.38
2023-05-14T16:45:06.892Z,93064.19
2023-05-14T16:47:33.291Z,93057.38
2023-05-14T16:49:59.880Z,93014.56
2023-05-14T16:52:26.241Z,92974.09
2023-05-14T16:54:52.629Z,92961.34
2023-05-14T16:57:19.146Z,92944.09
2023-05-14T16:59:46.156Z,92927.31
2023-05-14T17:02:12.466Z,92913.78
2023-05-14T17:04:42.047Z,92916.31
2023-05-14T17:07:08.587Z,92937.94
2023-05-14T17:09:34.921Z,92925.81
2023-05-14T17:12:01.622Z,92871.72
2023-05-14T17:14:27.953Z,92848.16
2023-05-14T17:16:54.670Z,92846.56
2023-05-14T17:19:21.068Z,92829.59
2023-05-14T17:21:47.429Z,92825.19
2023-05-14T17:24:13.829Z,92824.53
2023-05-14T17:26:40.542Z,92837.56
2023-05-14T17:29:06.874Z,92839.75
2023-05-14T17:31:33.265Z,92841.47
2023-05-14T17:34:00.129Z,92859.59
2023-05-14T17:36:28.312Z,92903.13
2023-05-14T17:38:55.205Z,92895.91
2023-05-14T17:41:21.547Z,92892.91
2023-05-14T17:43:47.929Z,92901.84
2023-05-14T17:46:14.711Z,92898.72
2023-05-14T17:48:41.196Z,92902.28
2023-05-14T17:51:07.561Z,92898.53
2023-05-14T17:53:34.194Z,92899.09
2023-05-14T17:56:00.740Z,92866.34
2023-05-14T17:58:27.399Z,92843.75
2023-05-14T18:00:54.147Z,92805.97
2023-05-14T18:03:20.839Z,92765.97
2023-05-14T18:05:47.296Z,92723.78
2023-05-14T18:08:14.660Z,92688.00
2023-05-14T18:10:41.047Z,92641.28
2023-05-14T18:13:07.376Z,92618.41
2023-05-14T18:15:35.500Z,92600.69
2023-05-14T18:18:01.960Z,92620.59
2023-05-14T18:20:28.347Z,92632.81
2023-05-14T18:22:55.065Z,92636.25
2023-05-14T18:25:21.462Z,92616.06
2023-05-14T18:27:47.880Z,92622.13
2023-05-14T18:30:16.105Z,92602.09
2023-05-14T18:32:44.585Z,92572.13
2023-05-14T18:35:11.864Z,92509.47
2023-05-14T18:37:38.853Z,92480.66
2023-05-14T18:40:06.846Z,92419.50
2023-05-14T18:42:33.917Z,92330.06
2023-05-14T18:45:00.910Z,92202.28
2023-05-14T18:47:27.455Z,92147.28
2023-05-14T18:49:55.667Z,92076.28
2023-05-14T18:52:23.303Z,92025.22
2023-05-14T18:54:50.798Z,91952.66
2023-05-14T18:57:17.219Z,91861.47
2023-05-14T18:59:43.894Z,91781.69
2023-05-14T19:02:10.255Z,91723.19
2023-05-14T19:04:50.546Z,91686.72
2023-05-14T19:07:19.124Z,91631.59
2023-05-14T19:09:45.526Z,91580.66
2023-05-14T19:12:12.202Z,91559.16
2023-05-14T19:14:38.877Z,91485.84
2023-05-14T19:17:05.711Z,91476.53
2023-05-14T19:19:32.517Z,91290.81
2023-05-14T19:21:59.240Z,91125.94
2023-05-14T19:24:25.758Z,91047.88
2023-05-14T19:26:52.293Z,90965.13
2023-05-14T19:29:19.301Z,90872.78
2023-05-14T19:31:45.910Z,90802.13
2023-05-14T19:34:12.306Z,90738.81
2023-05-14T19:36:39.689Z,90657.38
2023-05-14T19:39:06.023Z,90606.41
2023-05-14T19:41:32.415Z,90638.84
2023-05-14T19:43:58.940Z,90601.66
2023-05-14T19:46:25.923Z,90589.59
2023-05-14T19:48:52.316Z,90542.97
2023-05-14T19:51:19.090Z,90510.69
2023-05-14T19:53:45.445Z,90481.09
2023-05-14T19:56:11.789Z,90456.91
2023-05-14T19:58:38.517Z,90427.22
2023-05-14T20:01:04.908Z,90406.34
2023-05-14T20:03:32.135Z,90395.63
2023-05-14T20:05:59.011Z,90387.53
2023-05-14T20:08:25.395Z,90357.25
2023-05-14T20:10:51.850Z,90347.03
2023-05-14T20:13:18.734Z,90331.09
2023-05-14T20:15:46.471Z,90336.13
2023-05-14T20:18:12.940Z,90332.38
2023-05-14T20:20:39.943Z,90338.44
2023-05-14T20:23:06.297Z,90327.09
2023-05-14T20:25:33.282Z,90289.16
2023-05-14T20:28:03.326Z,90294.34
2023-05-14T20:30:29.712Z,90276.47
2023-05-14T20:32:56.414Z,90252.56
2023-05-14T20:35:23.329Z,90223.78
2023-05-14T20:37:49.958Z,90179.16
2023-05-14T20:40:16.396Z,90144.41
2023-05-14T20:42:43.638Z,90143.50
2023-05-14T20:45:10.579Z,90124.09
2023-05-14T20:47:37.179Z,90106.22
2023-05-14T20:50:04.971Z,90078.59
2023-05-14T20:52:31.407Z,90074.34
2023-05-14T20:54:59.411Z,90065.97
2023-05-14T20:57:28.483Z,90059.88
2023-05-14T20:59:54.936Z,90038.66
2023-05-14T21:02:21.524Z,90012.47
2023-05-14T21:04:48.338Z,90016.19
2023-05-14T21:07:14.707Z,90009.25
2023-05-14T21:09:41.107Z,90007.31
2023-05-14T21:12:08.801Z,89993.28
2023-05-14T21:14:35.191Z,89970.13
2023-05-14T21:17:01.550Z,89924.72
2023-05-14T21:19:28.165Z,89916.31
2023-05-14T21:21:54.472Z,89905.31
2023-05-14T21:24:20.790Z,89832.59
2023-05-14T21:26:47.591Z,89811.00
2023-05-14T21:29:13.976Z,90689.22
2023-05-14T21:31:40.719Z,90739.75
2023-05-14T21:34:07.435Z,90847.00
2023-05-14T21:36:33.818Z,90840.06
2023-05-14T21:39:00.254Z,90830.13
2023-05-14T21:41:27.038Z,90815.69
2023-05-14T21:43:53.693Z,90810.47
2023-05-14T21:46:20.216Z,90824.59
2023-05-14T21:48:47.156Z,90805.66
2023-05-14T21:51:13.737Z,90809.03
2023-05-14T21:53:40.103Z,90812.59
2023-05-14T21:56:08.487Z,90815.47
2023-05-14T21:58:35.710Z,90811.97
2023-05-14T22:01:02.093Z,90784.72
2023-05-14T22:03:29.164Z,90777.59
2023-05-14T22:05:56.141Z,90771.19
2023-05-14T22:08:22.661Z,90767.94
2023-05-14T22:10:49.016Z,90766.56
2023-05-14T22:13:15.404Z,90746.19
2023-05-14T22:15:41.782Z,90763.06
2023-05-14T22:18:09.311Z,90753.16
2023-05-14T22:20:35.665Z,90742.97
2023-05-14T22:23:01.984Z,90738.69
2023-05-14T22:25:28.695Z,90735.59
2023-05-14T22:27:55.098Z,90735.84
2023-05-14T22:30:21.542Z,90715.25
2023-05-14T22:32:48.318Z,90719.16
2023-05-14T22:35:14.765Z,90735.78
2023-05-14T22:37:41.145Z,90726.69
2023-05-14T22:40:10.043Z,90710.53
2023-05-14T22:42:36.439Z,90702.56
2023-05-14T22:45:02.961Z,90710.19
2023-05-14T22:47:29.947Z,90719.59
2023-05-14T22:49:56.316Z,90706.00
2023-05-14T22:52:22.695Z,90685.03
2023-05-14T22:54:52.218Z,90678.19
2023-05-14T22:57:18.656Z,90680.75
2023-05-14T22:59:45.051Z,90680.25
2023-05-14T23:02:12.075Z,90677.19
2023-05-14T23:04:38.514Z,90680.38
2023-05-14T23:07:04.893Z,90691.13
2023-05-14T23:09:31.754Z,90694.38
2023-05-14T23:11:58.073Z,90694.22
2023-05-14T23:14:24.400Z,90714.91
2023-05-14T23:16:51.151Z,90718.06
2023-05-14T23:19:17.681Z,90721.66
2023-05-14T23:21:44.068Z,90728.19
2023-05-14T23:24:10.773Z,90722.28
2023-05-14T23:26:37.127Z,90715.69
2023-05-14T23:29:03.458Z,90701.81
2023-05-14T23:31:30.212Z,90691.41
2023-05-14T23:33:56.965Z,90693.44
2023-05-14T23:36:23.377Z,90731.81
2023-05-14T23:38:50.590Z,90726.31
2023-05-14T23:41:16.939Z,90677.34
2023-05-14T23:43:43.257Z,90669.97
2023-05-14T23:46:10.232Z,90661.19
2023-05-14T23:48:36.810Z,90671.56
2023-05-14T23:51:03.222Z,90655.69
2023-05-14T23:53:29.939Z,90640.09
2023-05-14T23:55:56.475Z,90639.09
2023-05-14T23:58:22.840Z,90634.38
